AAL2609 KSAT-KDFW
Flight info
| Callsign | AAL2609 |
|---|---|
| Flight time | 0h 45m |
| Altitude | 27000 |
| Route | YODUH2 YODUH GUTZZ BOOVE7 |
| Aircraft | A21N/M-SDE2E3FGHIJ1RWXY/LB1 |
Departure
| Time | 2026-05-08 22:38 |
|---|---|
| Airport | San Antonio International Airport (KSAT) |
Arrival
| Time | 2026-05-08 23:23 |
|---|---|
| Airport | Dallas Fort Worth International Airport (KDFW) |
| Time | Latitude | Longitude | Altitude | Speed | Heading |
|---|---|---|---|---|---|
| 2026-05-08 21:55 | 29.52843 | -98.47154 | 818 ft | 0 kts | 311° |
| 2026-05-08 22:16 | 29.52842 | -98.47152 | 818 ft | 1 kts | 311° |
| 2026-05-08 22:16 | 29.52832 | -98.47139 | 818 ft | 2 kts | 311° |
| 2026-05-08 22:16 | 29.52822 | -98.47126 | 818 ft | 2 kts | 311° |
| 2026-05-08 22:16 | 29.52812 | -98.47113 | 818 ft | 1 kts | 329° |
| 2026-05-08 22:17 | 29.52797 | -98.47111 | 818 ft | 2 kts | 18° |
| 2026-05-08 22:17 | 29.52789 | -98.47116 | 818 ft | 0 kts | 47° |
| 2026-05-08 22:17 | 29.52785 | -98.47121 | 818 ft | 0 kts | 43° |
| 2026-05-08 22:33 | 29.52788 | -98.47117 | 818 ft | 3 kts | 43° |
| 2026-05-08 22:33 | 29.52846 | -98.47061 | 818 ft | 17 kts | 21° |
| 2026-05-08 22:34 | 29.52942 | -98.47039 | 818 ft | 9 kts | 342° |
| 2026-05-08 22:34 | 29.52994 | -98.47096 | 818 ft | 11 kts | 310° |
| 2026-05-08 22:34 | 29.53054 | -98.47182 | 818 ft | 16 kts | 315° |
| 2026-05-08 22:34 | 29.53151 | -98.47298 | 818 ft | 22 kts | 311° |
| 2026-05-08 22:35 | 29.53268 | -98.47449 | 818 ft | 27 kts | 312° |
| 2026-05-08 22:35 | 29.53396 | -98.47613 | 818 ft | 27 kts | 312° |
| 2026-05-08 22:35 | 29.53517 | -98.47769 | 818 ft | 26 kts | 312° |
| 2026-05-08 22:35 | 29.53637 | -98.47923 | 818 ft | 25 kts | 312° |
| 2026-05-08 22:36 | 29.53736 | -98.48053 | 818 ft | 24 kts | 311° |
| 2026-05-08 22:36 | 29.53850 | -98.48201 | 818 ft | 24 kts | 311° |
| 2026-05-08 22:36 | 29.53972 | -98.48356 | 818 ft | 23 kts | 312° |
| 2026-05-08 22:36 | 29.54081 | -98.48497 | 818 ft | 23 kts | 311° |
| 2026-05-08 22:37 | 29.54195 | -98.48605 | 818 ft | 15 kts | 8° |
| 2026-05-08 22:37 | 29.54253 | -98.48541 | 818 ft | 9 kts | 94° |
| 2026-05-08 22:37 | 29.54188 | -98.48444 | 818 ft | 37 kts | 132° |
| 2026-05-08 22:37 | 29.53855 | -98.48015 | 818 ft | 105 kts | 131° |
| 2026-05-08 22:38 | 29.53225 | -98.47201 | 822 ft | 163 kts | 132° |
| 2026-05-08 22:38 | 29.52432 | -98.46175 | 1198 ft | 178 kts | 131° |
| 2026-05-08 22:38 | 29.51639 | -98.45068 | 1709 ft | 188 kts | 125° |
| 2026-05-08 22:38 | 29.51085 | -98.43676 | 2235 ft | 196 kts | 102° |
| 2026-05-08 22:39 | 29.51075 | -98.42089 | 2627 ft | 207 kts | 77° |
| 2026-05-08 22:39 | 29.51678 | -98.40569 | 3019 ft | 212 kts | 52° |
| 2026-05-08 22:39 | 29.52795 | -98.39454 | 3457 ft | 216 kts | 28° |
| 2026-05-08 22:39 | 29.54220 | -98.38939 | 3870 ft | 223 kts | 4° |
| 2026-05-08 22:40 | 29.55787 | -98.39102 | 4291 ft | 234 kts | 342° |
| 2026-05-08 22:40 | 29.57247 | -98.39967 | 4800 ft | 241 kts | 321° |
| 2026-05-08 22:40 | 29.58358 | -98.41419 | 5376 ft | 247 kts | 300° |
| 2026-05-08 22:40 | 29.58954 | -98.43252 | 5990 ft | 251 kts | 279° |
| 2026-05-08 22:41 | 29.58953 | -98.45242 | 6634 ft | 256 kts | 259° |
| 2026-05-08 22:41 | 29.58329 | -98.47166 | 7304 ft | 260 kts | 239° |
| 2026-05-08 22:41 | 29.57172 | -98.48760 | 7930 ft | 267 kts | 226° |
| 2026-05-08 22:41 | 29.56006 | -98.50480 | 8343 ft | 281 kts | 248° |
| 2026-05-08 22:42 | 29.55755 | -98.52698 | 9010 ft | 286 kts | 281° |
| 2026-05-08 22:42 | 29.56578 | -98.54708 | 9754 ft | 289 kts | 311° |
| 2026-05-08 22:42 | 29.58255 | -98.55975 | 10387 ft | 298 kts | 342° |
| 2026-05-08 22:42 | 29.60347 | -98.56110 | 10708 ft | 317 kts | 12° |
| 2026-05-08 22:43 | 29.62448 | -98.55161 | 11022 ft | 334 kts | 30° |
| 2026-05-08 22:43 | 29.64438 | -98.53697 | 11331 ft | 351 kts | 33° |
| 2026-05-08 22:43 | 29.66579 | -98.52178 | 11626 ft | 367 kts | 30° |
| 2026-05-08 22:43 | 29.68868 | -98.50749 | 11910 ft | 383 kts | 27° |
| 2026-05-08 22:44 | 29.71285 | -98.49392 | 12289 ft | 395 kts | 25° |
| 2026-05-08 22:44 | 29.73807 | -98.48060 | 12903 ft | 401 kts | 24° |
| 2026-05-08 22:44 | 29.76355 | -98.46751 | 13523 ft | 405 kts | 24° |
| 2026-05-08 22:44 | 29.78935 | -98.45438 | 14099 ft | 411 kts | 23° |
| 2026-05-08 22:45 | 29.81552 | -98.44107 | 14666 ft | 416 kts | 23° |
| 2026-05-08 22:45 | 29.84236 | -98.42863 | 15223 ft | 420 kts | 18° |
| 2026-05-08 22:45 | 29.86893 | -98.41979 | 15749 ft | 423 kts | 11° |
| 2026-05-08 22:45 | 29.89817 | -98.41389 | 16273 ft | 427 kts | 5° |
| 2026-05-08 22:46 | 29.92781 | -98.41004 | 16678 ft | 435 kts | 4° |
| 2026-05-08 22:46 | 29.95795 | -98.40661 | 17180 ft | 440 kts | 3° |
| 2026-05-08 22:46 | 29.98835 | -98.40306 | 17719 ft | 444 kts | 3° |
| 2026-05-08 22:46 | 30.01882 | -98.39931 | 18230 ft | 448 kts | 3° |
| 2026-05-08 22:47 | 30.05014 | -98.39532 | 18737 ft | 452 kts | 3° |
| 2026-05-08 22:47 | 30.08178 | -98.39075 | 19239 ft | 456 kts | 5° |
| 2026-05-08 22:47 | 30.11349 | -98.38508 | 19837 ft | 458 kts | 6° |
| 2026-05-08 22:47 | 30.14491 | -98.37915 | 20555 ft | 455 kts | 5° |
| 2026-05-08 22:48 | 30.17607 | -98.37322 | 21242 ft | 452 kts | 5° |
| 2026-05-08 22:48 | 30.20782 | -98.36719 | 21888 ft | 450 kts | 5° |
| 2026-05-08 22:48 | 30.23862 | -98.36138 | 22482 ft | 449 kts | 4° |
| 2026-05-08 22:48 | 30.26977 | -98.35551 | 23075 ft | 447 kts | 4° |
| 2026-05-08 22:49 | 30.30024 | -98.34979 | 23646 ft | 445 kts | 3° |
| 2026-05-08 22:49 | 30.36196 | -98.33821 | 24742 ft | 442 kts | 2° |
| 2026-05-08 22:49 | 30.39207 | -98.33255 | 25263 ft | 440 kts | 2° |
| 2026-05-08 22:50 | 30.42287 | -98.32677 | 25777 ft | 438 kts | 2° |
| 2026-05-08 22:50 | 30.45347 | -98.32101 | 26296 ft | 436 kts | 1° |
| 2026-05-08 22:50 | 30.48338 | -98.31539 | 26728 ft | 434 kts | 1° |
| 2026-05-08 22:50 | 30.51308 | -98.30983 | 26871 ft | 435 kts | 1° |
| 2026-05-08 22:51 | 30.54296 | -98.30428 | 26878 ft | 443 kts | 1° |
| 2026-05-08 22:51 | 30.57321 | -98.29864 | 26879 ft | 445 kts | 1° |
| 2026-05-08 22:51 | 30.60409 | -98.29282 | 26878 ft | 445 kts | 1° |
| 2026-05-08 22:51 | 30.63480 | -98.28702 | 26878 ft | 445 kts | 1° |
| 2026-05-08 22:52 | 30.66557 | -98.28120 | 26879 ft | 444 kts | 1° |
| 2026-05-08 22:52 | 30.69584 | -98.27548 | 26879 ft | 445 kts | 1° |
| 2026-05-08 22:52 | 30.72682 | -98.26962 | 26880 ft | 445 kts | 1° |
| 2026-05-08 22:52 | 30.75729 | -98.26385 | 26880 ft | 444 kts | 1° |
| 2026-05-08 22:53 | 30.78818 | -98.25800 | 26881 ft | 445 kts | 1° |
| 2026-05-08 22:53 | 30.81912 | -98.25214 | 26881 ft | 444 kts | 1° |
| 2026-05-08 22:53 | 30.84970 | -98.24634 | 26881 ft | 445 kts | 1° |
| 2026-05-08 22:53 | 30.88035 | -98.24052 | 26881 ft | 445 kts | 1° |
| 2026-05-08 22:54 | 30.91089 | -98.23472 | 26882 ft | 444 kts | 1° |
| 2026-05-08 22:54 | 30.94176 | -98.22883 | 26882 ft | 442 kts | 1° |
| 2026-05-08 22:54 | 30.97236 | -98.22300 | 26883 ft | 441 kts | 1° |
| 2026-05-08 22:54 | 31.00287 | -98.21719 | 26883 ft | 440 kts | 1° |
| 2026-05-08 22:55 | 31.03322 | -98.21141 | 26883 ft | 439 kts | 1° |
| 2026-05-08 22:55 | 31.06397 | -98.20557 | 26881 ft | 438 kts | 1° |
| 2026-05-08 22:55 | 31.09416 | -98.19983 | 26881 ft | 438 kts | 1° |
| 2026-05-08 22:55 | 31.12287 | -98.19437 | 26881 ft | 438 kts | 1° |
| 2026-05-08 22:56 | 31.15414 | -98.18841 | 26881 ft | 438 kts | 1° |
| 2026-05-08 22:56 | 31.18416 | -98.18268 | 26881 ft | 438 kts | 1° |
| 2026-05-08 22:56 | 31.21388 | -98.17699 | 26881 ft | 438 kts | 1° |
| 2026-05-08 22:56 | 31.24370 | -98.17130 | 26881 ft | 438 kts | 1° |
| 2026-05-08 22:57 | 31.27357 | -98.16557 | 26881 ft | 438 kts | 1° |
| 2026-05-08 22:57 | 31.30376 | -98.15978 | 26881 ft | 438 kts | 1° |
| 2026-05-08 22:57 | 31.33345 | -98.15408 | 26881 ft | 437 kts | 1° |
| 2026-05-08 22:57 | 31.36317 | -98.14838 | 26881 ft | 437 kts | 1° |
| 2026-05-08 22:58 | 31.39337 | -98.14258 | 26881 ft | 437 kts | 1° |
| 2026-05-08 22:58 | 31.42337 | -98.13726 | 26881 ft | 436 kts | 359° |
| 2026-05-08 22:58 | 31.45318 | -98.13269 | 26881 ft | 435 kts | 359° |
| 2026-05-08 22:58 | 31.48311 | -98.12825 | 26881 ft | 435 kts | 359° |
| 2026-05-08 22:59 | 31.51313 | -98.12380 | 26881 ft | 435 kts | 359° |
| 2026-05-08 22:59 | 31.54317 | -98.11932 | 26881 ft | 435 kts | 359° |
| 2026-05-08 22:59 | 31.57288 | -98.11485 | 26881 ft | 435 kts | 359° |
| 2026-05-08 22:59 | 31.60288 | -98.11034 | 26881 ft | 436 kts | 359° |
| 2026-05-08 23:00 | 31.63296 | -98.10400 | 26879 ft | 442 kts | 5° |
| 2026-05-08 23:00 | 31.66229 | -98.09309 | 26878 ft | 446 kts | 13° |
| 2026-05-08 23:00 | 31.68988 | -98.07781 | 26880 ft | 448 kts | 20° |
| 2026-05-08 23:00 | 31.71685 | -98.05971 | 26881 ft | 446 kts | 22° |
| 2026-05-08 23:01 | 31.74369 | -98.04089 | 26881 ft | 446 kts | 22° |
| 2026-05-08 23:01 | 31.77001 | -98.02242 | 26881 ft | 446 kts | 22° |
| 2026-05-08 23:01 | 31.79664 | -98.00390 | 26878 ft | 446 kts | 22° |
| 2026-05-08 23:01 | 31.82283 | -97.98579 | 26633 ft | 437 kts | 22° |
| 2026-05-08 23:02 | 31.84866 | -97.96799 | 26383 ft | 430 kts | 22° |
| 2026-05-08 23:02 | 31.87444 | -97.95038 | 26132 ft | 427 kts | 21° |
| 2026-05-08 23:02 | 31.90032 | -97.93325 | 25881 ft | 425 kts | 21° |
| 2026-05-08 23:02 | 31.92598 | -97.91645 | 25632 ft | 423 kts | 21° |
| 2026-05-08 23:03 | 31.95202 | -97.89940 | 25379 ft | 424 kts | 21° |
| 2026-05-08 23:03 | 31.97799 | -97.88234 | 25127 ft | 425 kts | 21° |
| 2026-05-08 23:03 | 32.00390 | -97.86526 | 24875 ft | 426 kts | 21° |
| 2026-05-08 23:03 | 32.02971 | -97.84821 | 24581 ft | 427 kts | 21° |
| 2026-05-08 23:04 | 32.05573 | -97.83099 | 24206 ft | 428 kts | 22° |
| 2026-05-08 23:04 | 32.08161 | -97.81399 | 23641 ft | 429 kts | 22° |
| 2026-05-08 23:04 | 32.10762 | -97.79684 | 22985 ft | 431 kts | 22° |
| 2026-05-08 23:04 | 32.13329 | -97.77977 | 22446 ft | 429 kts | 23° |
| 2026-05-08 23:05 | 32.15920 | -97.76247 | 21976 ft | 426 kts | 23° |
| 2026-05-08 23:05 | 32.18441 | -97.74563 | 21502 ft | 423 kts | 24° |
| 2026-05-08 23:05 | 32.20153 | -97.73416 | 21179 ft | 421 kts | 24° |
| 2026-05-08 23:05 | 32.23559 | -97.71174 | 20538 ft | 416 kts | 21° |
| 2026-05-08 23:06 | 32.26137 | -97.69630 | 20063 ft | 412 kts | 21° |
| 2026-05-08 23:06 | 32.28709 | -97.68120 | 19588 ft | 410 kts | 21° |
| 2026-05-08 23:06 | 32.31260 | -97.66621 | 19117 ft | 408 kts | 21° |
| 2026-05-08 23:06 | 32.33802 | -97.65121 | 18646 ft | 405 kts | 21° |
| 2026-05-08 23:07 | 32.36257 | -97.63642 | 18211 ft | 403 kts | 24° |
| 2026-05-08 23:07 | 32.38583 | -97.61888 | 18046 ft | 394 kts | 32° |
| 2026-05-08 23:07 | 32.40698 | -97.59819 | 17590 ft | 394 kts | 39° |
| 2026-05-08 23:07 | 32.42669 | -97.57590 | 17147 ft | 391 kts | 41° |
| 2026-05-08 23:08 | 32.44596 | -97.55351 | 16847 ft | 384 kts | 41° |
| 2026-05-08 23:08 | 32.46492 | -97.53154 | 16562 ft | 380 kts | 41° |
| 2026-05-08 23:08 | 32.48298 | -97.51078 | 16081 ft | 380 kts | 41° |
| 2026-05-08 23:08 | 32.50085 | -97.49034 | 15671 ft | 377 kts | 41° |
| 2026-05-08 23:09 | 32.51901 | -97.46965 | 15268 ft | 374 kts | 41° |
| 2026-05-08 23:09 | 32.53765 | -97.44833 | 14851 ft | 371 kts | 41° |
| 2026-05-08 23:09 | 32.55622 | -97.42696 | 14431 ft | 367 kts | 41° |
| 2026-05-08 23:09 | 32.57423 | -97.40630 | 14268 ft | 355 kts | 41° |
| 2026-05-08 23:10 | 32.59244 | -97.38543 | 13973 ft | 348 kts | 41° |
| 2026-05-08 23:10 | 32.60967 | -97.36570 | 13664 ft | 343 kts | 41° |
| 2026-05-08 23:10 | 32.62681 | -97.34607 | 13338 ft | 337 kts | 42° |
| 2026-05-08 23:10 | 32.64350 | -97.32678 | 13102 ft | 329 kts | 43° |
| 2026-05-08 23:11 | 32.65938 | -97.30839 | 13028 ft | 316 kts | 42° |
| 2026-05-08 23:11 | 32.67468 | -97.29081 | 12986 ft | 306 kts | 42° |
| 2026-05-08 23:11 | 32.69000 | -97.27325 | 12995 ft | 309 kts | 42° |
| 2026-05-08 23:11 | 32.70525 | -97.25569 | 12987 ft | 309 kts | 42° |
| 2026-05-08 23:12 | 32.72083 | -97.23776 | 12675 ft | 312 kts | 42° |
| 2026-05-08 23:12 | 32.73629 | -97.21997 | 12317 ft | 310 kts | 43° |
| 2026-05-08 23:12 | 32.75162 | -97.20229 | 12045 ft | 305 kts | 43° |
| 2026-05-08 23:12 | 32.76590 | -97.18580 | 12002 ft | 291 kts | 43° |
| 2026-05-08 23:13 | 32.78010 | -97.17004 | 11825 ft | 283 kts | 34° |
| 2026-05-08 23:13 | 32.79758 | -97.16091 | 11409 ft | 277 kts | 3° |
| 2026-05-08 23:13 | 32.81627 | -97.16206 | 11044 ft | 272 kts | 348° |
| 2026-05-08 23:13 | 32.83492 | -97.16584 | 10674 ft | 272 kts | 348° |
| 2026-05-08 23:14 | 32.85355 | -97.16906 | 10307 ft | 273 kts | 350° |
| 2026-05-08 23:14 | 32.87199 | -97.17133 | 9960 ft | 273 kts | 352° |
| 2026-05-08 23:14 | 32.89072 | -97.17298 | 9614 ft | 273 kts | 354° |
| 2026-05-08 23:14 | 32.90960 | -97.17460 | 9262 ft | 271 kts | 348° |
| 2026-05-08 23:15 | 32.92723 | -97.18153 | 8904 ft | 267 kts | 332° |
| 2026-05-08 23:15 | 32.94362 | -97.19147 | 8560 ft | 266 kts | 329° |
| 2026-05-08 23:15 | 32.95982 | -97.20201 | 8204 ft | 266 kts | 328° |
| 2026-05-08 23:15 | 32.97583 | -97.21259 | 7861 ft | 266 kts | 328° |
| 2026-05-08 23:16 | 32.99197 | -97.22323 | 7527 ft | 265 kts | 328° |
| 2026-05-08 23:16 | 33.00811 | -97.23383 | 7196 ft | 264 kts | 328° |
| 2026-05-08 23:16 | 33.02439 | -97.24452 | 6665 ft | 271 kts | 328° |
| 2026-05-08 23:16 | 33.04071 | -97.25526 | 6090 ft | 270 kts | 329° |
| 2026-05-08 23:17 | 33.05846 | -97.26224 | 5479 ft | 273 kts | 359° |
| 2026-05-08 23:17 | 33.07620 | -97.25658 | 4902 ft | 270 kts | 36° |
| 2026-05-08 23:17 | 33.08855 | -97.24033 | 4324 ft | 264 kts | 66° |
| 2026-05-08 23:17 | 33.09315 | -97.22000 | 3750 ft | 256 kts | 93° |
| 2026-05-08 23:18 | 33.08982 | -97.19952 | 3225 ft | 248 kts | 119° |
| 2026-05-08 23:18 | 33.07982 | -97.18372 | 3002 ft | 236 kts | 144° |
| 2026-05-08 23:18 | 33.06604 | -97.17484 | 2991 ft | 218 kts | 167° |
| 2026-05-08 23:18 | 33.05143 | -97.17340 | 2993 ft | 209 kts | 188° |
| 2026-05-08 23:19 | 33.03705 | -97.17606 | 2991 ft | 208 kts | 186° |
| 2026-05-08 23:19 | 33.02320 | -97.17686 | 3017 ft | 190 kts | 181° |
| 2026-05-08 23:19 | 33.01067 | -97.17761 | 2983 ft | 176 kts | 182° |
| 2026-05-08 23:19 | 32.99874 | -97.17487 | 2892 ft | 179 kts | 152° |
| 2026-05-08 23:20 | 32.98901 | -97.16632 | 2731 ft | 169 kts | 140° |
| 2026-05-08 23:20 | 32.98084 | -97.15704 | 2483 ft | 158 kts | 139° |
| 2026-05-08 23:20 | 32.97316 | -97.14854 | 2246 ft | 144 kts | 140° |
| 2026-05-08 23:20 | 32.96566 | -97.14069 | 2058 ft | 144 kts | 141° |
| 2026-05-08 23:21 | 32.95810 | -97.13295 | 1866 ft | 144 kts | 141° |
| 2026-05-08 23:21 | 32.95065 | -97.12530 | 1681 ft | 143 kts | 141° |
| 2026-05-08 23:21 | 32.94309 | -97.11757 | 1485 ft | 143 kts | 142° |
| 2026-05-08 23:21 | 32.93543 | -97.10996 | 1295 ft | 142 kts | 139° |
| 2026-05-08 23:22 | 32.92822 | -97.10223 | 1122 ft | 141 kts | 137° |
| 2026-05-08 23:22 | 32.92083 | -97.09466 | 945 ft | 140 kts | 141° |
| 2026-05-08 23:22 | 32.91344 | -97.08712 | 751 ft | 142 kts | 141° |
| 2026-05-08 23:22 | 32.90600 | -97.07948 | 604 ft | 136 kts | 140° |
| 2026-05-08 23:23 | 32.90028 | -97.07358 | 584 ft | 69 kts | 140° |
| 2026-05-08 23:23 | 32.89696 | -97.07011 | 574 ft | 61 kts | 132° |
| 2026-05-08 23:23 | 32.89529 | -97.06609 | 583 ft | 53 kts | 111° |
| 2026-05-08 23:23 | 32.89399 | -97.06293 | 582 ft | 33 kts | 136° |
| 2026-05-08 23:24 | 32.89228 | -97.06118 | 582 ft | 31 kts | 138° |
| 2026-05-08 23:24 | 32.89067 | -97.05950 | 583 ft | 30 kts | 140° |
| 2026-05-08 23:24 | 32.88916 | -97.05796 | 585 ft | 28 kts | 139° |
| 2026-05-08 23:24 | 32.88770 | -97.05638 | 585 ft | 29 kts | 130° |
| 2026-05-08 23:25 | 32.88651 | -97.05418 | 583 ft | 34 kts | 112° |
| 2026-05-08 23:25 | 32.88609 | -97.05132 | 578 ft | 35 kts | 91° |
| 2026-05-08 23:25 | 32.88606 | -97.04855 | 578 ft | 30 kts | 89° |
| 2026-05-08 23:25 | 32.88737 | -97.04771 | 581 ft | 23 kts | 2° |
| 2026-05-08 23:26 | 32.88895 | -97.04768 | 584 ft | 22 kts | 0° |
| 2026-05-08 23:26 | 32.89044 | -97.04768 | 587 ft | 21 kts | 360° |
| 2026-05-08 23:26 | 32.89185 | -97.04768 | 590 ft | 19 kts | 360° |
| 2026-05-08 23:26 | 32.89327 | -97.04768 | 595 ft | 21 kts | 0° |
| 2026-05-08 23:27 | 32.89484 | -97.04765 | 598 ft | 24 kts | 360° |
| 2026-05-08 23:27 | 32.89656 | -97.04765 | 602 ft | 26 kts | 0° |
| 2026-05-08 23:27 | 32.89841 | -97.04765 | 605 ft | 26 kts | 0° |
| 2026-05-08 23:27 | 32.90018 | -97.04764 | 608 ft | 24 kts | 0° |
| 2026-05-08 23:28 | 32.90134 | -97.04722 | 607 ft | 14 kts | 78° |
| 2026-05-08 23:28 | 32.90133 | -97.04589 | 604 ft | 17 kts | 89° |
| 2026-05-08 23:28 | 32.90151 | -97.04491 | 602 ft | 3 kts | 49° |
| 2026-05-08 23:29 | 32.90165 | -97.04466 | 602 ft | 5 kts | 79° |
| 2026-05-08 23:29 | 32.90157 | -97.04410 | 601 ft | 8 kts | 122° |
| 2026-05-08 23:29 | 32.90140 | -97.04340 | 599 ft | 9 kts | 54° |
| 2026-05-08 23:29 | 32.90178 | -97.04287 | 598 ft | 4 kts | 26° |
| 2026-05-08 23:30 | 32.90182 | -97.04285 | 598 ft | 0 kts | 19° |